Terminal Aerodrome Forecast
Issued by NWS

Home | Current Version | Previous Version | Text Only | Print | Product List | Glossary On
Versions: 1 2 3 4 5 6 7 8 9 10 11 12 13 14 15 16 17 18 19 20 21 22 23 24 25 26 27 28 29 30
000
FTUS41 KOKX 241537 AAB
TAFTEB
TAF AMD
KTEB 241537Z 2416/2512 09004KT P6SM BKN100 BKN150
     FM241800 10006KT P6SM SCT070 BKN100
     FM242200 11007KT P6SM VCSH SCT050 BKN070
     FM250300 06005KT P6SM -RA SCT015 OVC060
     FM250600 05007KT 5SM -RA BR BKN015 OVC050
     FM251000 05011G17KT 2SM -RA BR BKN007 OVC010=

USA.gov is the U.S. government's official web portal to all federal, state and local government web resources and services.